Latest Weather Observations for Glen Innes Airport

IDN60801

Issued at 2:02 am EST Friday 27 May 2016 (issued every 30 minutes, with the page automatically refreshed every 10 minutes)

About weather observations | Map of weather stations | Latest weather observations for NSW | Other Formats
Station Details ID: 056243 Name: GLEN INNES AIRPORT AWS Lat: -29.68 Lon: 151.69 Height: 1044.3 m
Data from the previous 72 hours. | See also: Recent months at Glen Innes Airport
Date/Time
EST
Temp
°C
App
Temp
°C
Dew
Point
Rel
Hum
%
Delta-T
°C
Wind Press
QNH
hPa
Press
MSL
hPa
Rain
since 9 am
mm
Dir
 
Spd
km/h
Gust
km/h
Spd
kts
Gust
kts
27/02:00am 9.5 4.6 8.6 94 0.5 W 24 37 13 20 1008.6 1007.4 30.2
27/01:44am 9.5 4.2 8.4 93 0.6 WNW 26 33 14 18 1009.2 1007.9 30.0
27/01:30am 9.6 4.3 8.4 92 0.6 W 26 37 14 20 1008.5 1007.3 29.0
27/01:26am 9.6 3.5 8.2 91 0.7 W 30 43 16 23 1008.8 1007.5 28.6
27/01:03am 10.9 3.1 9.7 92 0.6 W 41 59 22 32 1008.4 1007.1 27.6
27/01:02am 11.0 2.8 9.8 92 0.6 W 43 59 23 32 1008.5 1007.3 27.6
27/01:00am 11.0 2.8 9.8 92 0.6 W 43 59 23 32 1008.5 1007.3 27.4
27/12:45am 11.6 4.8 10.7 94 0.5 W 37 57 20 31 1008.4 1007.1 26.6
27/12:30am 11.9 6.2 11.0 94 0.5 WNW 32 46 17 25 1007.8 1006.5 24.8
27/12:00am 11.9 6.2 11.1 95 0.4 WNW 32 41 17 22 1008.3 1007.0 24.4
 
Date/Time
EST
Temp
°C
App
Temp
°C
Dew
Point
Rel
Hum
%
Delta-T
°C
Wind Press
QNH
hPa
Press
MSL
hPa
Rain
since 9 am
mm
Dir
 
Spd
km/h
Gust
km/h
Spd
kts
Gust
kts
26/11:30pm 12.1 7.3 11.5 96 0.3 WNW 28 43 15 23 1008.6 1007.4 23.4
26/11:00pm 12.3 7.5 11.7 96 0.3 WNW 28 35 15 19 1009.2 1007.9 23.2
26/10:30pm 12.4 8.0 11.8 96 0.3 WNW 26 33 14 18 1009.5 1008.3 23.2
26/10:00pm 12.4 7.6 11.8 96 0.3 WNW 28 37 15 20 1009.6 1008.4 23.2
26/09:48pm 12.5 7.8 11.9 96 0.3 WNW 28 37 15 20 1009.9 1008.6 23.2
26/09:30pm 12.6 7.8 11.8 95 0.4 WNW 28 35 15 19 1010.1 1008.8 23.2
26/09:00pm 12.7 7.2 11.9 95 0.5 WNW 32 39 17 21 1010.3 1009.1 22.2
26/08:35pm 12.5 6.7 11.6 94 0.5 WNW 33 50 18 27 1010.5 1009.3 21.2
26/08:30pm 12.3 7.1 11.5 95 0.4 WNW 30 50 16 27 1010.6 1009.4 21.0
26/08:20pm 11.8 7.6 11.0 95 0.4 NW 24 33 13 18 1010.9 1009.6 20.0
26/08:16pm 11.7 7.4 10.9 95 0.4 WNW 24 32 13 17 1011.1 1009.9 19.4
26/08:00pm 11.5 7.6 10.7 95 0.4 NW 22 32 12 17 1011.1 1009.9 17.6
26/07:45pm 11.3 7.9 10.5 95 0.4 NW 19 26 10 14 1011.3 1010.1 14.8
26/07:39pm 11.3 8.2 10.4 94 0.5 NW 17 24 9 13 1010.8 1009.5 13.2
26/07:30pm 11.3 7.9 10.4 94 0.5 WNW 19 28 10 15 1011.0 1009.7 12.6
26/07:28pm 11.2 7.7 10.3 94 0.5 WNW 19 28 10 15 1011.0 1009.7 12.6
26/07:00pm 11.1 8.4 10.2 94 0.5 WNW 15 20 8 11 1011.5 1010.3 10.4
26/06:53pm 11.2 8.9 10.3 94 0.5 W 13 19 7 10 1011.1 1009.9 10.4
26/06:41pm 11.2 8.1 10.3 94 0.5 WSW 17 24 9 13 1011.1 1009.9 10.0
26/06:30pm 11.2 7.7 10.3 94 0.5 W 19 24 10 13 1011.9 1010.6 9.2
26/06:22pm 11.1 8.0 10.3 95 0.4 W 17 24 9 13 1011.6 1010.4 8.4
26/06:00pm 10.6 9.2 9.7 94 0.5 W 7 11 4 6 1010.3 1009.1 6.6
26/05:30pm 10.2 8.0 9.4 95 0.4 SW 11 13 6 7 1010.8 1009.5 6.6
26/05:00pm 9.9 8.5 8.8 93 0.6 WNW 6 11 3 6 1010.2 1008.9 6.6
26/04:30pm 10.1 8.2 9.0 93 0.6 W 9 20 5 11 1011.1 1009.9 6.4
26/04:15pm 9.9 7.1 8.7 92 0.6 WSW 13 20 7 11 1011.4 1010.2 5.6
26/04:02pm 10.1 6.6 8.7 91 0.7 SW 17 24 9 13 1011.6 1010.4 4.2
26/04:00pm 10.2 6.7 8.8 91 0.7 SW 17 24 9 13 1011.4 1010.2 4.0
26/03:41pm 10.1 5.8 8.0 87 1.1 S 20 43 11 23 1011.2 1010.0 2.2
26/03:30pm 10.3 8.7 8.1 86 1.1 NE 6 11 3 6 1009.9 1008.6 2.2
26/03:00pm 10.7 8.9 7.2 79 1.8 NNE 6 9 3 5 1010.8 1009.5 1.8
26/02:30pm 11.5 8.2 6.2 70 2.6 WSW 13 17 7 9 1011.9 1010.6 1.0
26/02:00pm 12.1 7.0 7.6 74 2.3 W 24 33 13 18 1012.4 1011.2 1.0
26/01:30pm 11.5 4.7 7.8 78 1.9 WNW 33 44 18 24 1012.6 1011.4 1.0
26/01:12pm 13.1 5.7 6.7 65 3.3 W 35 54 19 29 1012.6 1011.4 0.2
26/01:00pm 14.2 5.3 7.7 65 3.4 WNW 44 59 24 32 1012.2 1011.0 0.0
26/12:53pm 15.7 5.8 5.0 49 5.4 WNW 46 59 25 32 1012.1 1010.9 0.0
26/12:30pm 19.3 10.1 1.3 30 8.6 NW 39 54 21 29 1011.2 1010.0 0.0
26/12:00pm 19.9 10.0 1.8 30 8.8 NW 43 61 23 33 1012.0 1010.8 0.0
26/11:30am 19.7 10.3 0.2 27 9.1 NNW 39 57 21 31 1012.6 1011.4 0.0
26/11:00am 19.0 9.1 -0.9 26 9.1 NW 41 54 22 29 1013.3 1012.1 0.0
26/10:30am 18.0 8.7 -1.8 26 8.8 NW 37 46 20 25 1014.3 1013.1 0.0
26/10:08am 17.4 9.0 -2.8 25 8.7 NW 32 50 17 27 1014.7 1013.6 0.0
26/10:00am 17.2 8.1 -3.5 24 8.8 NW 35 46 19 25 1014.8 1013.7 0.0
26/09:30am 16.7 8.9 -3.9 24 8.7 NNW 28 37 15 20 1015.5 1014.4 0.0
26/09:17am 16.0 8.2 -4.0 25 8.3 NNW 28 39 15 21 1015.5 1014.4 0.0
26/09:00am 14.4 9.2 -2.9 30 7.3 N 15 20 8 11 1015.7 1014.6 0.0
26/08:30am 12.4 7.8 -3.8 32 6.5 N 11 17 6 9 1016.1 1014.9 0.0
26/08:00am 9.8 7.3 -1.3 46 4.6 ENE 2 7 1 4 1016.2 1015.1 0.0
26/07:30am 5.4 3.5 0.8 72 1.9 CALM 0 0 0 0 1016.4 1015.3 0.0
26/07:00am 0.6 -1.8 -3.0 77 1.3 CALM 0 0 0 0 1016.4 1015.3 0.0
26/06:30am -1.9 -5.6 -4.9 80 0.9 E 6 7 3 4 1016.4 1015.3 0.0
26/06:00am -3.1 -7.1 -5.6 83 0.7 E 7 9 4 5 1016.4 1015.3 0.0
26/05:30am -3.1 -6.9 -6.0 80 0.8 WSW 6 7 3 4 1016.4 1015.3 0.0
26/05:00am -2.3 -6.7 -5.4 79 0.9 SSW 9 11 5 6 1016.2 1015.1 0.0
26/04:30am -4.1 -8.6 -6.7 82 0.6 SSE 9 11 5 6 1015.8 1014.7 0.0
26/04:00am -4.8 -9.0 -7.5 81 0.6 E 7 9 4 5 1016.2 1015.1 0.0
26/03:30am -4.5 -8.1 -7.7 78 0.8 SE 4 13 2 7 1016.6 1015.5 0.0
26/03:00am -3.1 -7.1 -6.0 80 0.8 SSE 7 9 4 5 1016.8 1015.7 0.0
26/02:30am -3.5 -7.5 -5.8 84 0.6 SE 7 11 4 6 1017.0 1015.9 0.0
26/02:00am -5.5 -10.1 -8.2 81 0.6 SE 9 15 5 8 1017.4 1016.3 0.0
26/01:30am -5.8 -10.5 -9.0 78 0.7 SE 9 11 5 6 1017.5 1016.4 0.0
26/01:00am -5.8 -10.1 -9.2 77 0.7 SE 7 9 4 5 1017.7 1016.6 0.0
26/12:30am -5.4 -10.1 -8.8 77 0.8 SE 9 11 5 6 1018.1 1017.0 0.0
26/12:00am -6.3 -11.1 -10.0 75 0.8 SE 9 11 5 6 1018.2 1017.1 0.0
 
Date/Time
EST
Temp
°C
App
Temp
°C
Dew
Point
Rel
Hum
%
Delta-T
°C
Wind Press
QNH
hPa
Press
MSL
hPa
Rain
since 9 am
mm
Dir
 
Spd
km/h
Gust
km/h
Spd
kts
Gust
kts
25/11:30pm -3.7 -6.6 -8.5 69 1.3 CALM 0 0 0 0 1018.7 1017.7 0.0
25/11:00pm -4.8 -9.1 -9.2 71 1.1 SE 7 9 4 5 1018.7 1017.7 0.0
25/10:30pm -3.6 -7.9 -9.0 66 1.4 SSE 7 9 4 5 1019.1 1018.0 0.0
25/10:00pm -1.4 -5.4 -7.9 61 2.0 SE 6 7 3 4 1019.3 1018.2 0.0
25/09:30pm -2.2 -5.5 -8.7 61 1.9 SE 2 6 1 3 1019.2 1018.1 0.0
25/09:00pm -0.1 -3.1 -8.8 52 2.7 CALM 0 0 0 0 1019.2 1018.1 0.0
25/08:30pm 0.4 -3.0 -9.8 46 3.1 E 2 4 1 2 1019.3 1018.2 0.0
25/08:00pm 1.0 -3.1 -9.3 46 3.2 SE 6 9 3 5 1019.2 1018.1 0.0
25/07:30pm 2.3 -0.7 -9.0 43 3.7 CALM 0 0 0 0 1019.1 1018.0 0.0
25/07:00pm 3.3 0.2 -10.3 36 4.4 CALM 0 0 0 0 1018.7 1017.7 0.0
25/06:30pm 2.6 -0.5 -10.3 38 4.1 CALM 0 0 0 0 1018.6 1017.6 0.0
25/06:00pm 6.6 3.5 -11.0 27 5.6 CALM 0 0 0 0 1018.5 1017.4 0.0
25/05:30pm 10.3 5.5 -10.5 22 7.0 NW 9 9 5 5 1018.2 1017.1 0.0
25/05:00pm 12.4 6.9 -9.9 20 7.8 WNW 13 15 7 8 1018.1 1017.0 0.0
25/04:30pm 15.5 10.0 -9.4 17 9.2 WNW 13 15 7 8 1017.8 1016.8 0.0
25/04:00pm 17.2 10.5 -10.5 14 10.2 WNW 19 22 10 12 1017.9 1016.9 0.0
25/03:30pm 17.1 11.1 -11.5 13 10.3 WNW 15 20 8 11 1017.8 1016.8 0.0
25/03:00pm 18.1 11.4 -10.7 13 10.7 W 19 24 10 13 1017.8 1016.8 0.0
25/02:30pm 19.4 12.5 -13.0 10 11.6 W 19 26 10 14 1017.7 1016.6 0.0
25/02:00pm 20.1 13.7 -11.2 11 11.7 W 17 28 9 15 1017.8 1016.8 0.0
25/01:30pm 20.0 13.2 -12.5 10 11.9 WNW 19 28 10 15 1018.2 1017.1 0.0
25/01:00pm 19.8 13.0 -12.7 10 11.8 W 19 30 10 16 1018.6 1017.6 0.0
25/12:30pm 19.9 13.4 -12.6 10 11.8 WNW 17 24 9 13 1018.7 1017.7 0.0
25/12:00pm 19.2 13.2 -10.9 12 11.2 W 15 24 8 13 1019.1 1018.0 0.0
25/11:30am 18.6 12.5 -12.4 11 11.2 SW 15 22 8 12 1019.5 1018.5 0.0
25/11:00am 17.8 12.6 -10.9 13 10.5 WNW 11 17 6 9 1019.9 1018.9 0.0
25/10:30am 17.3 13.0 -9.5 15 10.1 NW 7 15 4 8 1020.3 1019.3 0.0
25/10:00am 15.6 11.9 -8.6 18 9.1 N 4 9 2 5 1020.5 1019.5 0.0
25/09:30am 13.0 9.1 -6.5 25 7.5 E 6 9 3 5 1020.5 1019.5 0.0
25/09:00am 9.1 5.0 -3.1 42 4.8 ESE 9 11 5 6 1020.6 1019.6 0.0
25/08:30am 5.7 2.4 -1.0 62 2.7 E 6 7 3 4 1020.8 1019.8 0.0
25/08:00am 2.6 -1.4 -1.9 72 1.7 E 9 11 5 6 1020.8 1019.8 0.0
25/07:30am -1.0 -5.9 -3.0 86 0.7 ESE 13 15 7 8 1020.7 1019.7 0.0
25/07:00am -4.3 -10.1 -5.1 94 0.1 ESE 17 20 9 11 1020.4 1019.4 0.0
25/06:30am -7.1 -12.1 -8.2 92 0.1 ESE 11 11 6 6 1020.0 1019.0 0.0
25/06:00am -7.7 -12.0 -9.2 89 0.1 ESE 7 11 4 6 1019.9 1018.9 0.0
25/05:30am -6.2 -10.8 -7.7 89 0.2 ESE 9 11 5 6 1019.7 1018.7 0.0
25/05:00am -5.6 -9.5 -7.0 90 0.2 ESE 6 7 3 4 1019.8 1018.8 0.0
25/04:30am -6.6 -11.2 -7.7 92 0.1 ESE 9 11 5 6 1019.7 1018.7 0.0
25/04:00am -7.1 -11.4 -8.7 88 0.2 ESE 7 9 4 5 1019.6 1018.6 0.0
25/03:30am -6.3 -10.5 -7.8 89 0.2 SE 7 9 4 5 1019.6 1018.6 0.0
25/03:00am -5.2 -10.1 -6.6 90 0.2 SSE 11 13 6 7 1019.6 1018.6 0.0
25/02:30am -4.5 -8.5 -5.9 90 0.3 SE 7 9 4 5 1019.8 1018.8 0.0
25/02:00am -3.8 -8.2 -5.6 87 0.4 SSE 9 11 5 6 1019.9 1018.9 0.0
25/01:30am -4.0 -8.0 -5.7 88 0.4 ESE 7 9 4 5 1020.0 1019.0 0.0
25/01:00am -4.4 -8.3 -6.5 85 0.5 ENE 6 7 3 4 1020.2 1019.1 0.0
25/12:30am -1.1 -3.6 -4.4 78 1.1 CALM 0 0 0 0 1020.2 1019.1 0.0
25/12:00am -0.8 -4.4 -4.0 79 1.1 E 6 9 3 5 1020.3 1019.3 0.0
 
Date/Time
EST
Temp
°C
App
Temp
°C
Dew
Point
Rel
Hum
%
Delta-T
°C
Wind Press
QNH
hPa
Press
MSL
hPa
Rain
since 9 am
mm
Dir
 
Spd
km/h
Gust
km/h
Spd
kts
Gust
kts
24/11:30pm -1.9 -5.9 -6.1 73 1.3 SE 7 9 4 5 1020.4 1019.4 0.0
24/11:00pm 1.3 -1.2 -4.1 67 2.0 CALM 0 0 0 0 1020.5 1019.5 0.0
24/10:30pm 4.5 0.5 -2.1 62 2.5 WSW 9 15 5 8 1020.5 1019.5 0.0
24/10:00pm 5.4 1.7 -3.1 54 3.2 WSW 7 9 4 5 1020.5 1019.5 0.0
24/09:30pm 4.0 0.2 -4.0 56 2.9 SSW 7 11 4 6 1020.6 1019.6 0.0
24/09:00pm 2.2 -1.8 -5.2 58 2.7 SW 7 9 4 5 1020.8 1019.8 0.0
24/08:30pm 2.6 -2.1 -4.8 58 2.6 WSW 11 15 6 8 1020.7 1019.7 0.0
24/08:00pm 5.0 -0.5 -5.6 46 3.7 WSW 15 17 8 9 1020.5 1019.5 0.0
24/07:30pm 5.7 0.9 -5.6 44 4.0 WSW 11 13 6 7 1020.4 1019.4 0.0
24/07:00pm 8.2 4.2 -6.0 36 5.2 S 7 11 4 6 1020.3 1019.3 0.0
24/06:30pm 5.6 3.0 -5.1 46 3.9 CALM 0 0 0 0 1020.3 1019.3 0.0
24/06:00pm 6.3 2.5 -6.0 41 4.4 W 6 9 3 5 1019.9 1018.9 0.0
24/05:30pm 8.6 3.9 -5.2 37 5.2 W 11 11 6 6 1019.6 1018.6 0.0
24/05:00pm 10.1 5.0 -5.0 34 5.8 W 13 15 7 8 1019.3 1018.2 0.0
24/04:30pm 14.0 8.1 -5.7 25 7.7 W 17 22 9 12 1019.2 1018.1 0.0
24/04:00pm 16.4 10.4 -6.6 20 9.1 W 17 24 9 13 1019.1 1018.0 0.0
24/03:30pm 17.3 11.1 -4.6 22 9.1 W 19 24 10 13 1018.9 1017.9 0.0
24/03:00pm 18.1 12.0 -8.1 16 10.2 W 17 24 9 13 1018.8 1017.8 0.0
24/02:30pm 18.4 10.7 -10.5 13 10.8 WSW 24 35 13 19 1018.6 1017.6 0.0
24/02:00pm 18.8 11.6 -10.2 13 10.9 WSW 22 33 12 18 1018.6 1017.6 0.0
24/01:30pm 19.3 11.8 -8.8 14 11.0 WSW 24 35 13 19 1018.7 1017.7 0.0
24/01:00pm 19.0 11.5 -9.1 14 10.8 W 24 33 13 18 1018.7 1017.7 0.0
24/12:30pm 18.3 10.8 -8.7 15 10.4 WSW 24 30 13 16 1019.1 1018.0 0.0
24/12:00pm 18.6 11.3 -10.3 13 10.8 WSW 22 28 12 15 1019.3 1018.2 0.0
24/11:30am 18.2 11.3 -10.6 13 10.7 W 20 28 11 15 1019.7 1018.7 0.0
24/11:00am 17.8 12.9 -7.5 17 9.9 WNW 11 19 6 10 1020.2 1019.1 0.0
24/10:30am 17.1 12.7 -9.7 15 10.0 NW 7 13 4 7 1020.5 1019.5 0.0
24/10:00am 15.9 11.9 -5.8 22 8.7 NW 7 9 4 5 1020.9 1019.9 0.0
24/09:30am 14.0 9.4 -7.4 22 8.1 SSE 9 17 5 9 1020.9 1019.9 0.0
24/09:00am 10.8 7.0 -5.6 31 6.2 ESE 6 9 3 5 1021.0 1020.0 0.0
24/08:30am 7.2 5.0 -1.2 55 3.4 CALM 0 7 0 4 1021.0 1020.0 0.0
24/08:00am 3.6 1.4 -1.7 68 2.0 CALM 0 0 0 0 1020.8 1019.8 0.0
24/07:30am 0.6 -3.3 -4.2 70 1.7 SSE 7 9 4 5 1020.8 1019.8 0.0
24/07:00am -0.6 -4.7 -6.3 65 1.8 SSE 7 11 4 6 1020.7 1019.7 0.0
24/06:30am -1.8 -7.0 -6.3 71 1.4 SE 13 17 7 9 1020.5 1019.5 0.0
24/06:00am -1.1 -7.1 -6.6 66 1.7 SSE 17 19 9 10 1020.2 1019.1 0.0
24/05:30am 1.1 -4.0 -5.6 61 2.3 SSE 13 15 7 8 1020.0 1019.0 0.0
24/05:00am -1.1 -6.6 -5.1 74 1.3 SSE 15 15 8 8 1019.9 1018.9 0.0
24/04:30am -2.3 -7.3 -4.6 84 0.7 SSE 13 15 7 8 1019.9 1018.9 0.0
24/04:00am -2.1 -6.7 -4.4 84 0.7 SSE 11 11 6 6 1019.9 1018.9 0.0
24/03:30am -0.6 -4.0 -2.3 88 0.6 SE 6 7 3 4 1020.0 1019.0 0.0
24/03:00am 0.4 -2.5 -1.2 89 0.6 SE 4 9 2 5 1020.2 1019.1 0.0
24/02:30am 1.5 -1.8 0.0 90 0.6 SE 7 9 4 5 1020.0 1019.0 0.0

Other Formats:

Comma delimited format used in spreadsheet applications
http://www.bom.gov.au/fwo/IDN60801/IDN60801.94588.axf

JavaScript Object Notation format (JSON) in row-major order
http://www.bom.gov.au/fwo/IDN60801/IDN60801.94588.json